createdAt,value
2022-09-07T02:30:17.633Z,0
2022-09-07T02:31:17.663Z,0
2022-09-07T02:32:17.582Z,0
2022-09-07T02:33:17.599Z,0
2022-09-07T02:34:17.583Z,0
2022-09-07T02:35:17.603Z,0
2022-09-07T02:36:17.589Z,0
2022-09-07T02:37:17.596Z,0
2022-09-07T02:38:17.587Z,0
2022-09-07T02:39:17.598Z,0
2022-09-07T02:40:17.614Z,0
2022-09-07T02:41:17.602Z,0
2022-09-07T02:42:17.607Z,0
2022-09-07T02:43:17.597Z,0
2022-09-07T02:44:17.600Z,0
2022-09-07T02:45:17.612Z,0
2022-09-07T02:46:17.662Z,0
2022-09-07T02:47:17.604Z,0
2022-09-07T02:48:17.601Z,0
2022-09-07T02:49:17.604Z,0
2022-09-07T02:50:17.614Z,0
2022-09-07T02:51:17.599Z,0
2022-09-07T02:52:17.604Z,0
2022-09-07T02:53:17.597Z,0
2022-09-07T02:54:17.599Z,0
2022-09-07T02:55:17.616Z,0
2022-09-07T02:56:17.600Z,0
2022-09-07T02:57:17.600Z,0
2022-09-07T02:58:17.601Z,0
2022-09-07T02:59:17.604Z,0
2022-09-07T03:00:17.604Z,0
2022-09-07T03:01:17.657Z,0
2022-09-07T03:02:17.601Z,0
2022-09-07T03:03:17.597Z,0
2022-09-07T03:04:17.608Z,0
2022-09-07T03:05:17.601Z,0
2022-09-07T03:06:17.605Z,0
2022-09-07T03:07:17.602Z,0
2022-09-07T03:08:17.602Z,0
2022-09-07T03:09:17.603Z,0
2022-09-07T03:10:17.601Z,0
2022-09-07T03:11:17.611Z,0
2022-09-07T03:12:17.603Z,0
2022-09-07T03:13:17.607Z,0
2022-09-07T03:14:17.606Z,0
2022-09-07T03:15:17.604Z,0
2022-09-07T03:16:17.677Z,0
2022-09-07T03:17:17.606Z,0
2022-09-07T03:18:17.612Z,0
2022-09-07T03:19:17.615Z,0
2022-09-07T03:20:17.605Z,0
2022-09-07T03:21:17.640Z,0
2022-09-07T03:22:17.611Z,0
2022-09-07T03:23:17.611Z,0
2022-09-07T03:24:17.609Z,0
2022-09-07T03:25:17.610Z,0
2022-09-07T03:26:17.602Z,0
2022-09-07T03:27:17.610Z,0
2022-09-07T03:28:17.611Z,0
2022-09-07T03:29:17.597Z,0
2022-09-07T03:30:17.633Z,0
2022-09-07T03:31:17.685Z,0
2022-09-07T03:32:17.589Z,0
2022-09-07T03:33:17.595Z,0
2022-09-07T03:34:17.602Z,0
2022-09-07T03:35:17.609Z,0
2022-09-07T03:36:17.592Z,0
2022-09-07T03:37:17.591Z,0
2022-09-07T03:38:17.588Z,0
2022-09-07T03:39:17.593Z,0
2022-09-07T03:40:17.608Z,0
2022-09-07T03:41:17.589Z,0
2022-09-07T03:42:17.599Z,0
2022-09-07T03:43:17.591Z,0
2022-09-07T03:44:17.607Z,0
2022-09-07T03:45:17.672Z,0
2022-09-07T03:46:17.655Z,0
2022-09-07T03:47:17.608Z,0
2022-09-07T03:48:17.602Z,0
2022-09-07T03:49:17.592Z,0
2022-09-07T03:50:17.605Z,0
2022-09-07T03:51:17.605Z,0
2022-09-07T03:52:17.587Z,0
2022-09-07T03:53:17.616Z,0
2022-09-07T03:54:17.605Z,0
2022-09-07T03:55:17.606Z,0
2022-09-07T03:56:17.607Z,0
2022-09-07T03:57:17.588Z,1
2022-09-07T03:58:17.608Z,1
2022-09-07T03:59:17.602Z,3
2022-09-07T04:00:17.640Z,3
2022-09-07T04:01:17.671Z,5
2022-09-07T04:02:17.716Z,7
2022-09-07T04:03:17.609Z,7
2022-09-07T04:04:17.616Z,9
2022-09-07T04:05:17.601Z,12
2022-09-07T04:06:17.611Z,12
2022-09-07T04:07:17.608Z,16
2022-09-07T04:08:17.606Z,20
2022-09-07T04:09:17.594Z,22
2022-09-07T04:10:17.603Z,27
2022-09-07T04:11:17.606Z,33
2022-09-07T04:12:17.602Z,38
2022-09-07T04:13:17.612Z,46
2022-09-07T04:14:17.611Z,53
2022-09-07T04:15:17.606Z,62
2022-09-07T04:16:17.706Z,73
2022-09-07T04:17:17.611Z,84
2022-09-07T04:18:17.612Z,84
2022-09-07T04:19:17.610Z,110
2022-09-07T04:20:17.606Z,125
2022-09-07T04:21:17.610Z,143
2022-09-07T04:22:17.608Z,158
2022-09-07T04:23:17.607Z,178
2022-09-07T04:24:17.606Z,199
2022-09-07T04:25:17.609Z,217
2022-09-07T04:26:17.605Z,239
2022-09-07T04:27:17.612Z,263
2022-09-07T04:28:17.608Z,287
2022-09-07T04:29:17.601Z,311
2022-09-07T04:30:17.618Z,339
2022-09-07T04:31:17.672Z,366
2022-09-07T04:32:17.606Z,396
2022-09-07T04:33:17.607Z,423
2022-09-07T04:34:17.611Z,453
2022-09-07T04:35:17.606Z,482
2022-09-07T04:36:17.592Z,512
2022-09-07T04:37:17.762Z,545
2022-09-07T04:38:17.607Z,575
2022-09-07T04:39:17.614Z,608
2022-09-07T04:40:17.629Z,637
2022-09-07T04:41:17.605Z,672
2022-09-07T04:42:17.609Z,711
2022-09-07T04:43:17.590Z,744
2022-09-07T04:44:17.592Z,781
2022-09-07T04:45:17.612Z,823
2022-09-07T04:46:17.711Z,864
2022-09-07T04:47:17.587Z,912
2022-09-07T04:48:17.591Z,963
2022-09-07T04:49:17.606Z,1011
2022-09-07T04:50:17.611Z,1061
2022-09-07T04:51:17.593Z,1107
2022-09-07T04:52:17.592Z,1166
2022-09-07T04:53:17.584Z,1227
2022-09-07T04:54:17.592Z,1292
2022-09-07T04:55:17.639Z,1349
2022-09-07T04:56:17.586Z,1411
2022-09-07T04:57:17.604Z,1480
2022-09-07T04:58:17.603Z,1544
2022-09-07T04:59:17.611Z,1605
2022-09-07T05:00:17.624Z,1682
2022-09-07T05:01:17.701Z,1738
2022-09-07T05:02:17.665Z,1806
2022-09-07T05:03:17.601Z,1880
2022-09-07T05:04:17.611Z,1944
2022-09-07T05:05:17.606Z,2009
2022-09-07T05:06:17.609Z,2082
2022-09-07T05:07:17.602Z,2152
2022-09-07T05:08:17.663Z,2217
2022-09-07T05:09:17.601Z,2291
2022-09-07T05:10:17.608Z,2359
2022-09-07T05:11:17.602Z,2414
2022-09-07T05:12:17.610Z,2479
2022-09-07T05:13:17.605Z,2562
2022-09-07T05:14:17.609Z,2602
2022-09-07T05:15:17.606Z,2672
2022-09-07T05:16:17.701Z,2716
2022-09-07T05:17:17.608Z,2751
2022-09-07T05:18:17.604Z,2751
2022-09-07T05:19:17.604Z,2821
2022-09-07T05:20:20.259Z,2842
2022-09-07T05:21:17.594Z,2880
2022-09-07T05:22:17.613Z,2921
2022-09-07T05:23:17.583Z,2945
2022-09-07T05:24:17.610Z,2950
2022-09-07T05:25:17.603Z,2982
2022-09-07T05:26:17.611Z,2998
2022-09-07T05:27:17.598Z,3015
2022-09-07T05:28:19.584Z,3083
2022-09-07T05:31:18.321Z,3568
2022-09-07T05:32:17.605Z,4020
2022-09-07T05:33:17.609Z,4252
2022-09-07T05:34:33.150Z,4576
2022-09-07T05:35:17.605Z,4821
2022-09-07T05:36:17.603Z,5098
2022-09-07T05:37:17.602Z,5372
2022-09-07T05:38:17.608Z,5446
2022-09-07T05:39:17.607Z,5571
2022-09-07T05:40:17.840Z,5581
2022-09-07T05:41:17.606Z,5643
2022-09-07T05:42:17.597Z,5791
2022-09-07T05:43:17.610Z,5876
2022-09-07T05:44:45.613Z,5938
2022-09-07T05:45:17.604Z,6193
2022-09-07T05:46:17.698Z,6080
2022-09-07T05:47:17.607Z,5992
2022-09-07T05:48:17.594Z,5671
2022-09-07T05:49:17.587Z,5724
2022-09-07T05:50:17.613Z,6126
2022-09-07T05:51:17.622Z,6274
2022-09-07T05:52:17.603Z,6617
2022-09-07T05:53:17.589Z,7111
2022-09-07T05:54:17.591Z,6849
2022-09-07T05:55:29.315Z,6935
2022-09-07T05:56:17.595Z,6985
2022-09-07T05:57:17.591Z,6781
2022-09-07T05:58:17.600Z,6512
2022-09-07T05:59:17.595Z,6390
2022-09-07T06:00:17.643Z,6357
2022-09-07T06:01:17.586Z,6753
2022-09-07T06:02:17.735Z,6093
2022-09-07T06:03:17.791Z,6115
2022-09-07T06:04:17.590Z,6644
2022-09-07T06:05:17.608Z,7488
2022-09-07T06:06:17.590Z,7614
2022-09-07T06:07:22.055Z,7601
2022-09-07T06:08:17.586Z,7485
2022-09-07T06:09:17.602Z,7710
2022-09-07T06:10:45.340Z,7581
2022-09-07T06:11:17.594Z,7319
2022-09-07T06:12:17.593Z,6827
2022-09-07T06:13:17.605Z,6283
2022-09-07T06:14:17.603Z,6075
2022-09-07T06:15:17.616Z,6220
2022-09-07T06:16:17.690Z,7997
2022-09-07T06:17:17.605Z,7087
2022-09-07T06:18:17.585Z,7087
2022-09-07T06:19:17.613Z,6856
2022-09-07T06:20:17.606Z,6379
2022-09-07T06:21:17.593Z,6856
2022-09-07T06:22:17.607Z,7116
2022-09-07T06:23:17.609Z,7347
2022-09-07T06:24:17.599Z,7031
2022-09-07T06:25:17.608Z,7713
2022-09-07T06:26:17.591Z,8091
2022-09-07T06:27:17.598Z,7914
2022-09-07T06:28:17.612Z,8215
2022-09-07T06:29:17.595Z,8593
2022-09-07T06:30:17.618Z,8598
2022-09-07T06:31:17.637Z,8613
2022-09-07T06:32:43.900Z,8539
2022-09-07T06:33:21.406Z,8427
2022-09-07T06:34:17.601Z,8696
2022-09-07T06:35:17.606Z,9077
2022-09-07T06:36:17.588Z,9273
2022-09-07T06:37:17.613Z,9763
2022-09-07T06:38:17.608Z,11444
2022-09-07T06:39:17.612Z,10332
2022-09-07T06:40:17.639Z,10513
2022-09-07T06:42:17.602Z,10714
2022-09-07T06:43:17.598Z,11097
2022-09-07T06:44:17.610Z,11431
2022-09-07T06:45:17.604Z,11414
2022-09-07T06:47:17.606Z,11680
2022-09-07T06:48:17.606Z,11768
2022-09-07T06:49:17.608Z,12100
2022-09-07T06:50:17.616Z,12471
2022-09-07T06:51:17.609Z,12629
2022-09-07T06:52:17.611Z,13088
2022-09-07T06:55:17.605Z,13363
2022-09-07T06:56:17.613Z,13569
2022-09-07T06:57:17.608Z,13868
2022-09-07T06:58:17.609Z,14074
2022-09-07T06:59:17.604Z,14100
2022-09-07T07:00:17.607Z,14314
2022-09-07T07:01:17.668Z,14435
2022-09-07T07:02:17.601Z,14415
2022-09-07T07:03:17.626Z,14467
2022-09-07T07:04:17.608Z,14738
2022-09-07T07:05:17.602Z,14732
2022-09-07T07:06:17.607Z,14874
2022-09-07T07:07:17.602Z,14911
2022-09-07T07:08:17.588Z,15186
2022-09-07T07:09:17.595Z,15311
2022-09-07T07:10:22.140Z,15215
2022-09-07T07:11:17.590Z,15178
2022-09-07T07:14:17.589Z,15206
2022-09-07T07:15:17.605Z,14802
2022-09-07T07:16:17.642Z,16806
2022-09-07T07:17:17.588Z,14485
2022-09-07T07:18:21.305Z,14485
2022-09-07T07:19:17.586Z,12987
2022-09-07T07:20:17.627Z,11988
2022-09-07T07:21:17.586Z,11726
2022-09-07T07:22:43.011Z,11702
2022-09-07T07:23:17.587Z,11663
2022-09-07T07:24:17.586Z,12148
2022-09-07T07:25:17.609Z,11765
2022-09-07T07:26:17.682Z,11593
2022-09-07T07:27:17.626Z,11763
2022-09-07T07:29:18.844Z,11809
2022-09-07T07:30:17.631Z,11825
2022-09-07T07:31:17.609Z,11955
2022-09-07T07:32:17.604Z,11943
2022-09-07T07:33:17.604Z,11849
2022-09-07T07:34:17.669Z,11949
2022-09-07T07:35:17.603Z,12074
2022-09-07T07:36:17.593Z,12010
2022-09-07T07:37:17.608Z,11872
2022-09-07T07:40:19.948Z,12272
2022-09-07T07:42:17.592Z,12502
2022-09-07T07:43:17.607Z,12574
2022-09-07T07:44:17.605Z,12607
2022-09-07T07:46:17.623Z,12930
2022-09-07T07:47:17.608Z,13158
2022-09-07T07:48:17.604Z,13359
2022-09-07T07:49:17.606Z,13442
2022-09-07T07:50:33.763Z,13473
2022-09-07T07:51:17.589Z,13523
2022-09-07T07:53:42.595Z,13888
2022-09-07T07:54:17.612Z,14006
2022-09-07T07:55:43.616Z,14008
2022-09-07T07:56:17.603Z,14067
2022-09-07T07:57:17.606Z,14052
2022-09-07T07:58:17.606Z,14069
2022-09-07T07:59:17.606Z,13663
2022-09-07T08:00:27.468Z,14052
2022-09-07T08:01:17.646Z,14292
2022-09-07T08:02:17.711Z,14078
2022-09-07T08:03:17.605Z,14008
2022-09-07T08:04:17.604Z,14048
2022-09-07T08:05:17.601Z,13483
2022-09-07T08:06:17.606Z,13929
2022-09-07T08:07:17.611Z,14323
2022-09-07T08:08:17.610Z,14439
2022-09-07T08:09:17.601Z,14592
2022-09-07T08:10:17.629Z,14616
2022-09-07T08:11:17.586Z,14507
2022-09-07T08:12:17.634Z,14631
2022-09-07T08:13:17.619Z,14786
2022-09-07T08:14:17.609Z,14902
2022-09-07T08:15:17.610Z,15160
2022-09-07T08:16:17.653Z,15346
2022-09-07T08:17:17.612Z,15335
2022-09-07T08:18:17.633Z,15335
2022-09-07T08:19:17.596Z,15320
2022-09-07T08:20:17.601Z,15241
2022-09-07T08:21:17.619Z,15294
2022-09-07T08:22:17.606Z,15451
2022-09-07T08:23:17.585Z,15691
2022-09-07T08:24:17.592Z,16081
2022-09-07T08:25:17.602Z,16286
2022-09-07T08:26:17.593Z,15385
2022-09-07T08:27:17.600Z,15904
2022-09-07T08:28:17.592Z,16244
2022-09-07T08:29:17.590Z,16339
2022-09-07T08:30:17.648Z,16612
2022-09-07T08:31:17.710Z,16476
2022-09-07T08:32:17.592Z,16542
2022-09-07T08:33:17.593Z,15987
2022-09-07T08:34:17.589Z,15569
2022-09-07T08:35:17.610Z,16181
2022-09-07T08:36:17.595Z,13495
2022-09-07T08:37:17.596Z,11967
2022-09-07T08:38:20.920Z,13224
2022-09-07T08:39:17.587Z,16741
2022-09-07T08:40:17.818Z,15904
2022-09-07T08:41:17.591Z,17173
2022-09-07T08:42:17.593Z,17315
2022-09-07T08:43:17.591Z,17193
2022-09-07T08:44:17.611Z,16520
2022-09-07T08:45:17.600Z,15505
2022-09-07T08:46:17.643Z,17722
2022-09-07T08:47:17.605Z,17961
2022-09-07T08:48:17.602Z,17855
2022-09-07T08:49:17.608Z,17925
2022-09-07T08:50:17.606Z,18035
2022-09-07T08:51:22.358Z,15235
2022-09-07T08:52:17.609Z,15007
2022-09-07T08:53:17.610Z,15772
2022-09-07T08:54:17.614Z,15326
2022-09-07T08:55:17.615Z,17333
2022-09-07T08:56:17.591Z,14454
2022-09-07T08:57:21.109Z,14931
2022-09-07T08:58:38.549Z,15475
2022-09-07T08:59:17.602Z,12926
2022-09-07T09:00:17.630Z,13307
2022-09-07T09:01:33.351Z,14330
2022-09-07T09:02:38.379Z,15912
2022-09-07T09:03:31.978Z,16669
2022-09-07T09:04:18.791Z,17484
2022-09-07T09:06:11.775Z,16771
2022-09-07T09:06:17.749Z,18384
2022-09-07T09:07:17.613Z,18667
2022-09-07T09:08:17.607Z,18680
2022-09-07T09:09:17.612Z,18789
2022-09-07T09:10:17.610Z,18813
2022-09-07T09:11:17.591Z,18879
2022-09-07T09:12:17.604Z,18929
2022-09-07T09:13:17.607Z,19202
2022-09-07T09:14:17.649Z,19058
2022-09-07T09:15:17.622Z,18944
2022-09-07T09:16:17.760Z,19025
2022-09-07T09:17:17.671Z,18852
2022-09-07T09:18:17.610Z,18852
2022-09-07T09:19:17.604Z,18951
2022-09-07T09:20:17.620Z,19047
2022-09-07T09:21:17.591Z,19130
2022-09-07T09:22:17.628Z,19034
2022-09-07T09:23:17.605Z,19110
2022-09-07T09:24:17.606Z,19053
2022-09-07T09:25:17.606Z,19066
2022-09-07T09:26:17.586Z,19101
2022-09-07T09:27:17.606Z,19056
2022-09-07T09:28:17.585Z,19121
2022-09-07T09:29:17.598Z,18562
2022-09-07T09:30:17.608Z,18678
2022-09-07T09:31:17.671Z,21030
2022-09-07T09:32:17.609Z,20120
2022-09-07T09:33:17.610Z,19193
2022-09-07T09:34:17.626Z,20041
2022-09-07T09:35:17.606Z,19521
2022-09-07T09:36:17.591Z,20030
2022-09-07T09:37:17.658Z,19499
2022-09-07T09:38:17.606Z,19049
2022-09-07T09:39:17.612Z,19379
2022-09-07T09:40:17.836Z,19563
2022-09-07T09:41:17.637Z,19572
2022-09-07T09:42:17.615Z,19405
2022-09-07T09:43:17.592Z,19327
2022-09-07T09:44:17.586Z,19325
2022-09-07T09:45:17.609Z,19066
2022-09-07T09:46:17.585Z,19137
2022-09-07T09:47:32.132Z,19110
2022-09-07T09:48:17.591Z,19117
2022-09-07T09:49:17.586Z,19198
2022-09-07T09:52:29.363Z,19263
2022-09-07T09:52:41.848Z,19445
2022-09-07T09:53:17.588Z,19526
2022-09-07T09:54:17.590Z,19480
2022-09-07T09:55:33.906Z,19517
2022-09-07T09:56:17.585Z,19532
2022-09-07T09:57:17.593Z,19611
2022-09-07T10:00:28.015Z,19676
2022-09-07T10:01:21.784Z,19571
2022-09-07T10:04:18.423Z,19502
2022-09-07T10:05:17.597Z,19473
2022-09-07T10:06:17.587Z,19497
2022-09-07T10:07:17.596Z,19495
2022-09-07T10:08:17.589Z,19462
2022-09-07T10:09:17.599Z,19497
2022-09-07T10:10:17.625Z,19493
2022-09-07T10:11:17.618Z,19278
2022-09-07T10:12:17.606Z,19255
2022-09-07T10:13:17.600Z,19283
2022-09-07T10:14:17.596Z,19318
2022-09-07T10:15:17.610Z,19108
2022-09-07T10:16:17.707Z,18981
2022-09-07T10:17:17.603Z,20376
2022-09-07T10:18:17.605Z,20376
2022-09-07T10:19:17.611Z,19631
2022-09-07T10:20:17.608Z,19652
2022-09-07T10:21:17.587Z,19716
2022-09-07T10:22:17.597Z,19701
2022-09-07T10:23:17.609Z,19666
2022-09-07T10:24:17.611Z,19716
2022-09-07T10:25:17.601Z,19493
2022-09-07T10:26:17.589Z,19416
2022-09-07T10:27:17.602Z,19230
2022-09-07T10:28:17.604Z,20109
2022-09-07T10:29:17.608Z,19399
2022-09-07T10:30:17.615Z,19685
2022-09-07T10:31:17.650Z,17862
2022-09-07T10:32:17.668Z,16780
2022-09-07T10:33:17.591Z,16679
2022-09-07T10:34:27.817Z,18122
2022-09-07T10:35:18.706Z,18214
2022-09-07T10:36:17.594Z,17495
2022-09-07T10:37:17.600Z,17821
2022-09-07T10:38:17.602Z,19287
2022-09-07T10:39:17.598Z,16286
2022-09-07T10:40:17.737Z,15333
2022-09-07T10:41:17.581Z,17134
2022-09-07T10:42:17.608Z,16856
2022-09-07T10:43:21.426Z,16083
2022-09-07T10:44:17.607Z,19858
2022-09-07T10:45:17.594Z,19971
2022-09-07T10:46:56.263Z,20352
2022-09-07T10:47:17.654Z,20120
2022-09-07T10:48:17.610Z,20310
2022-09-07T10:49:17.608Z,20184
2022-09-07T10:50:24.373Z,20006
2022-09-07T10:51:17.605Z,19995
2022-09-07T10:52:17.605Z,19840
2022-09-07T10:53:39.544Z,18299
2022-09-07T10:54:31.899Z,20826
2022-09-07T10:55:17.699Z,20693
2022-09-07T10:56:17.589Z,20393
2022-09-07T10:57:17.586Z,20485
2022-09-07T10:58:17.799Z,20337
2022-09-07T10:59:17.584Z,20446
2022-09-07T11:00:17.599Z,20345
2022-09-07T11:01:17.642Z,20186
2022-09-07T11:02:17.635Z,21145
2022-09-07T11:03:25.544Z,20238
2022-09-07T11:04:17.583Z,20313
2022-09-07T11:05:17.589Z,19954
2022-09-07T11:06:17.595Z,18994
2022-09-07T11:07:17.590Z,18620
2022-09-07T11:08:17.594Z,19971
2022-09-07T11:09:18.458Z,20201
2022-09-07T11:10:17.603Z,16719
2022-09-07T11:11:17.849Z,19849
2022-09-07T11:12:17.602Z,19921
2022-09-07T11:13:17.602Z,20520
2022-09-07T11:14:17.611Z,14998
2022-09-07T11:15:17.600Z,12550
2022-09-07T11:17:17.614Z,11145
2022-09-07T11:18:17.603Z,11145
2022-09-07T11:19:37.219Z,9477
2022-09-07T11:20:17.661Z,9099
2022-09-07T11:21:56.085Z,8981
2022-09-07T11:22:17.609Z,8898
2022-09-07T11:23:17.635Z,8908
2022-09-07T11:24:17.602Z,9029
2022-09-07T11:25:31.464Z,9164
2022-09-07T11:26:17.582Z,9212
2022-09-07T11:27:17.603Z,9426
2022-09-07T11:28:17.602Z,9582
2022-09-07T11:29:30.758Z,9750
2022-09-07T11:30:17.609Z,9951
2022-09-07T11:31:17.655Z,10052
2022-09-07T11:32:17.612Z,10001
2022-09-07T11:33:17.611Z,10065
2022-09-07T11:34:24.982Z,9754
2022-09-07T11:35:17.596Z,9674
2022-09-07T11:36:17.582Z,9569
2022-09-07T11:37:17.596Z,9610
2022-09-07T11:38:17.597Z,9721
2022-09-07T11:39:17.597Z,9792
2022-09-07T11:40:17.669Z,10067
2022-09-07T11:41:17.596Z,10554
2022-09-07T11:42:43.814Z,10585
2022-09-07T11:43:17.601Z,11132
2022-09-07T11:44:17.605Z,11803
2022-09-07T11:45:17.597Z,10948
2022-09-07T11:46:17.635Z,11007
2022-09-07T11:47:17.589Z,11085
2022-09-07T11:48:19.625Z,10989
2022-09-07T11:49:17.598Z,11814
2022-09-07T11:50:17.610Z,12421
2022-09-07T11:51:17.587Z,11140
2022-09-07T11:52:17.597Z,11016
2022-09-07T11:53:17.609Z,11186
2022-09-07T11:54:17.609Z,11374
2022-09-07T11:55:17.604Z,11527
2022-09-07T11:56:17.617Z,11634
2022-09-07T11:57:17.602Z,12115
2022-09-07T11:58:17.601Z,12425
2022-09-07T11:59:17.599Z,12235
2022-09-07T12:00:17.615Z,12249
2022-09-07T12:01:17.601Z,12843
2022-09-07T12:02:17.682Z,13344
2022-09-07T12:03:20.941Z,12893
2022-09-07T12:04:17.655Z,12843
2022-09-07T12:05:17.602Z,13278
2022-09-07T12:06:17.587Z,13153
2022-09-07T12:07:17.583Z,13711
2022-09-07T12:08:17.603Z,13460
2022-09-07T12:09:17.591Z,13580
2022-09-07T12:10:17.610Z,16371
2022-09-07T12:11:22.607Z,17045
2022-09-07T12:12:17.586Z,14238
2022-09-07T12:13:17.586Z,14493
2022-09-07T12:14:17.586Z,14609
2022-09-07T12:15:17.602Z,16465
2022-09-07T12:16:17.640Z,12614
2022-09-07T12:17:17.587Z,13250
2022-09-07T12:18:17.592Z,13250
2022-09-07T12:19:17.594Z,13055
2022-09-07T12:20:17.639Z,13138
2022-09-07T12:21:17.582Z,15567
2022-09-07T12:22:17.583Z,13973
2022-09-07T12:23:17.602Z,13252
2022-09-07T12:24:17.595Z,12616
2022-09-07T12:25:17.611Z,12935
2022-09-07T12:26:17.602Z,11468
2022-09-07T12:27:17.591Z,11320
2022-09-07T12:28:21.714Z,12251
2022-09-07T12:29:17.601Z,13416
2022-09-07T12:30:17.612Z,13416
2022-09-07T12:31:17.624Z,19788
2022-09-07T12:33:17.615Z,22741
2022-09-07T12:34:17.611Z,18857
2022-09-07T12:35:17.602Z,14815
2022-09-07T12:36:17.591Z,12976
2022-09-07T12:37:17.613Z,12084
2022-09-07T12:38:17.614Z,11706
2022-09-07T12:39:17.595Z,11649
2022-09-07T12:40:17.748Z,12213
2022-09-07T12:41:17.588Z,12767
2022-09-07T12:43:17.605Z,12542
2022-09-07T12:44:17.599Z,12937
2022-09-07T12:45:17.600Z,12954
2022-09-07T12:46:17.719Z,12922
2022-09-07T12:47:17.584Z,18914
2022-09-07T12:48:17.635Z,14047
2022-09-07T12:49:17.603Z,13829
2022-09-07T12:50:17.893Z,13993
2022-09-07T12:51:59.617Z,13567
2022-09-07T12:52:17.608Z,14336
2022-09-07T12:53:17.604Z,16892
2022-09-07T12:54:17.617Z,17318
2022-09-07T12:55:27.942Z,14338
2022-09-07T12:56:17.997Z,15551
2022-09-07T12:57:31.273Z,15665
2022-09-07T12:58:17.619Z,15095
2022-09-07T12:59:19.867Z,12880
2022-09-07T13:00:17.632Z,12646
2022-09-07T13:01:17.757Z,12533
2022-09-07T13:02:18.285Z,12675
2022-09-07T13:04:17.609Z,15265
2022-09-07T13:05:17.602Z,13964
2022-09-07T13:06:17.807Z,15340
2022-09-07T13:07:17.612Z,14845
2022-09-07T13:08:17.619Z,15138
2022-09-07T13:09:17.602Z,15217
2022-09-07T13:10:17.635Z,15989
2022-09-07T13:11:17.584Z,17724
2022-09-07T13:12:52.794Z,13941
2022-09-07T13:13:17.808Z,14424
2022-09-07T13:14:18.223Z,16868
2022-09-07T13:15:24.077Z,12406
2022-09-07T13:16:17.789Z,17770
2022-09-07T13:17:17.730Z,17790
2022-09-07T13:18:17.587Z,17790
2022-09-07T13:19:17.583Z,15517
2022-09-07T13:20:17.599Z,16441
2022-09-07T13:21:17.588Z,20689
2022-09-07T13:22:17.580Z,20719
2022-09-07T13:23:17.580Z,20671
2022-09-07T13:24:46.680Z,20802
2022-09-07T13:25:17.601Z,20533
2022-09-07T13:26:17.673Z,20330
2022-09-07T13:27:17.587Z,20133
2022-09-07T13:28:17.597Z,20151
2022-09-07T13:29:17.671Z,20166
2022-09-07T13:30:17.628Z,19644
2022-09-07T13:31:17.674Z,18505
2022-09-07T13:32:17.587Z,18113
2022-09-07T13:33:17.582Z,18634
2022-09-07T13:34:17.584Z,18708
2022-09-07T13:35:17.596Z,12837
2022-09-07T13:36:17.585Z,16155
2022-09-07T13:37:17.581Z,15877
2022-09-07T13:38:17.677Z,15785
2022-09-07T13:39:17.618Z,16142
2022-09-07T13:40:17.812Z,17458
2022-09-07T13:41:17.587Z,17361
2022-09-07T13:42:17.600Z,18354
2022-09-07T13:43:17.609Z,19360
2022-09-07T13:44:17.598Z,16933
2022-09-07T13:45:17.603Z,10021
2022-09-07T13:46:17.691Z,8884
2022-09-07T13:47:17.593Z,9109
2022-09-07T13:48:17.582Z,10303
2022-09-07T13:49:17.606Z,10069
2022-09-07T13:50:17.602Z,10725
2022-09-07T13:51:17.582Z,17639
2022-09-07T13:52:17.596Z,10570
2022-09-07T13:53:17.603Z,12144
2022-09-07T13:54:17.622Z,12237
2022-09-07T13:55:17.603Z,12856
2022-09-07T13:56:17.587Z,9381
2022-09-07T13:57:17.603Z,9145
2022-09-07T13:58:17.597Z,10152
2022-09-07T13:59:17.603Z,11381
2022-09-07T14:00:17.604Z,13184
2022-09-07T14:01:17.631Z,19178
2022-09-07T14:02:17.670Z,18214
2022-09-07T14:03:17.587Z,17357
2022-09-07T14:04:17.616Z,18256
2022-09-07T14:05:17.603Z,18988
2022-09-07T14:06:17.587Z,19355
2022-09-07T14:07:23.507Z,19327
2022-09-07T14:08:22.155Z,19134
2022-09-07T14:09:22.147Z,19252
2022-09-07T14:10:22.195Z,19418
2022-09-07T14:11:22.129Z,19215
2022-09-07T14:12:22.145Z,18636
2022-09-07T14:13:22.136Z,18234
2022-09-07T14:14:22.144Z,18564
2022-09-07T14:15:22.383Z,18352
2022-09-07T14:16:22.160Z,18203
2022-09-07T14:17:22.149Z,17574
2022-09-07T14:18:22.147Z,17574
2022-09-07T14:19:22.131Z,19137
2022-09-07T14:20:22.153Z,18485
2022-09-07T14:21:22.130Z,18282
2022-09-07T14:22:22.137Z,17821
2022-09-07T14:23:22.148Z,16015
2022-09-07T14:24:22.136Z,9909
2022-09-07T14:25:22.156Z,4921
2022-09-07T14:26:22.140Z,3725
2022-09-07T14:27:22.145Z,3330
2022-09-07T14:28:22.133Z,3111
2022-09-07T14:29:22.122Z,2985
2022-09-07T14:30:22.118Z,2901
2022-09-07T14:31:22.228Z,2862
2022-09-07T14:32:22.128Z,2829
2022-09-07T14:33:22.161Z,2831
2022-09-07T14:34:22.123Z,2831
2022-09-07T14:35:22.119Z,2845
2022-09-07T14:36:42.444Z,2893
2022-09-07T14:37:22.133Z,2989
2022-09-07T14:39:22.128Z,3185
2022-09-07T14:40:22.260Z,3304
2022-09-07T14:41:22.137Z,3426
2022-09-07T14:42:23.043Z,3548
2022-09-07T14:43:23.573Z,3686
2022-09-07T14:44:22.132Z,3900
2022-09-07T14:45:22.117Z,4222
2022-09-07T14:46:22.316Z,4668
2022-09-07T14:47:22.139Z,5616
2022-09-07T14:48:29.259Z,5962
2022-09-07T14:49:22.124Z,6698
2022-09-07T14:50:22.140Z,6535
2022-09-07T14:51:34.675Z,6021
2022-09-07T14:52:22.133Z,5601
2022-09-07T14:53:35.808Z,5347
2022-09-07T14:54:22.130Z,5212
2022-09-07T14:55:22.112Z,4993
2022-09-07T14:56:22.151Z,4759
2022-09-07T14:57:22.136Z,4458
2022-09-07T14:58:22.124Z,4147
2022-09-07T14:59:22.148Z,3868
2022-09-07T15:00:22.120Z,3618
2022-09-07T15:01:38.137Z,3404
2022-09-07T15:02:22.231Z,3197
2022-09-07T15:03:22.113Z,3044
2022-09-07T15:04:22.164Z,2939
2022-09-07T15:05:22.138Z,2845
2022-09-07T15:07:22.130Z,2643
2022-09-07T15:08:22.175Z,2545
2022-09-07T15:09:22.110Z,2449
2022-09-07T15:10:23.188Z,2329
2022-09-07T15:11:34.574Z,2210
2022-09-07T15:12:30.063Z,2088
2022-09-07T15:13:22.123Z,1992
2022-09-07T15:14:22.177Z,1931
2022-09-07T15:15:22.196Z,1898
2022-09-07T15:16:22.399Z,1883
2022-09-07T15:17:44.130Z,1894
2022-09-07T15:18:22.127Z,1894
2022-09-07T15:19:22.139Z,1974
2022-09-07T15:20:22.109Z,2021
2022-09-07T15:21:22.120Z,2066
2022-09-07T15:22:22.171Z,2101
2022-09-07T15:23:22.145Z,2132
2022-09-07T15:24:22.133Z,2162
2022-09-07T15:25:22.123Z,2160
2022-09-07T15:27:22.144Z,2151
2022-09-07T15:29:23.223Z,2125
2022-09-07T15:30:22.125Z,2114
2022-09-07T15:31:49.758Z,2092
2022-09-07T15:32:22.164Z,2073
2022-09-07T15:33:22.139Z,2045
2022-09-07T15:34:22.125Z,2025
2022-09-07T15:35:22.124Z,1977
2022-09-07T15:36:22.112Z,1935
2022-09-07T15:39:22.136Z,1734
2022-09-07T15:40:22.188Z,1653
2022-09-07T15:41:24.426Z,1575
2022-09-07T15:43:23.281Z,1478
2022-09-07T15:44:26.060Z,1452
2022-09-07T15:45:22.104Z,1446
2022-09-07T15:46:22.196Z,1478
2022-09-07T15:47:50.898Z,1528
2022-09-07T15:48:22.118Z,1590
2022-09-07T15:49:22.145Z,1671
2022-09-07T15:50:23.073Z,1784
2022-09-07T15:52:22.122Z,2665
2022-09-07T15:54:22.137Z,2473
2022-09-07T15:55:22.124Z,2477
2022-09-07T15:56:22.104Z,2370
2022-09-07T15:57:52.706Z,2331
2022-09-07T15:58:22.164Z,2329
2022-09-07T15:59:22.142Z,2298
2022-09-07T16:00:22.110Z,2265
2022-09-07T16:01:52.064Z,2211
2022-09-07T16:03:22.246Z,2097
2022-09-07T16:04:24.018Z,2055
2022-09-07T16:05:23.252Z,1983
2022-09-07T16:06:22.121Z,1931
2022-09-07T16:07:22.396Z,1887
2022-09-07T16:08:25.545Z,1846
2022-09-07T16:09:22.439Z,1828
2022-09-07T16:10:22.113Z,1828
2022-09-07T16:11:23.913Z,1797
2022-09-07T16:13:22.146Z,1780
2022-09-07T16:14:22.393Z,1780
2022-09-07T16:15:22.116Z,1767
2022-09-07T16:16:22.507Z,1752
2022-09-07T16:17:35.678Z,1741
2022-09-07T16:18:22.133Z,1741
2022-09-07T16:19:22.224Z,1701